Terminal Aerodrome Forecast
Issued by NWS

Home | Current Version | Previous Version | Text Only | Print | Product List | Glossary On
Versions: 1 2 3 4 5 6 7 8 9 10 11 12 13 14 15 16 17 18 19
000
FTUS41 KCAR 250527
TAFBHB
TAF
KBHB 250527Z 2506/2606 26006KT P6SM SCT080
     FM251500 25010KT P6SM SCT060
     FM252000 23008KT P6SM VCSH BKN060
     FM260200 23008KT P6SM BKN060=

USA.gov is the U.S. government's official web portal to all federal, state and local government web resources and services.